Terminal Aerodrome Forecast
Issued by NWS

Home | Current Version | Previous Version | Text Only | Print | Product List | Glossary On
Versions: 1 2 3 4 5 6 7 8 9 10 11 12 13 14
388
FTUS46 KSGX 210520
TAFTRM
TAF
KTRM 210520Z 2106/2206 34014G22KT P6SM SKC
     FM211000 32009KT P6SM SKC
     FM211900 15008KT P6SM SKC
     FM220100 33015G25KT P6SM SKC=

USA.gov is the U.S. government's official web portal to all federal, state and local government web resources and services.